Rechercher aéroport 
image banner adimage banner adimage banner ad
image banner ad

0O4 - Corning Muni

Situé à Corning, United States

ICAO - 0O4, IATA -

Données fournies par Airmate  

Information générale

Coordonnées: N39°56'46" W122°10'16"
Élévation : 296 feet MSL.
Variation magnétique : 17° East
Voir autres Aéroports à California

Données opérationnelles

Special qualification required
Heure actuelle UTC:
Heure actuelle locale:
Météo à : KRBL - Red Bluff Muni ( 24 km )
METAR: KRBL 020554Z AUTO 17007KT 10SM CLR 29/13 A2996 RMK AO2 SLP139 T02940133 10400 20294 51022
TAF: KRBL 020538Z 0206/0306 17005KT P6SM SKC FM022000 15007KT P6SM BKN250
Voir NOTAMs / SUP AIP / TFR affectant cet aéroport [VIEW]
Fréquences de communication: [VIEW]

Pistes:

Identifiant RWYQFULongueur (ft)Largeur (ft)SurfaceLDA (ft)
17180°269960ASPH
35360°269960ASPH

Coordonnées de l'aéroport

Adresse: Corning United States

Vue satellite de 0O4